Погода Акжолна неделю

Кызылординская область, Казахстан

25 - 31 июля
  • 25июля
    Сегодня
    +23°
    +42°
    Облачно с прояснениями
    ВремяПогодаТемператураВлажностьДавлениеВетер, м/сВероятность осадков
    02:00Ясно и безоблачно+28°C28 %740 мм5.2 м/с2 %
    05:00Ясно и безоблачно+26°C35 %739 мм6.6 м/с2 %
    08:00Ясно и безоблачно+29°C31 %740 мм7.0 м/с2 %
    11:00Небольшая облачность+35°C19 %739 мм6.3 м/с2 %
    14:00Облачно с прояснениями+41°C14 %738 мм6.6 м/с2 %
    17:00Облачно с прояснениями+41°C14 %737 мм9.3 м/с2 %
    20:00Пасмурно, сплошная облачность+33°C30 %738 мм17.5 м/с4 %
    23:00Пасмурно, сплошная облачность+27°C46 %740 мм5.2 м/с27 %
  • 26июля
    Пятница
    +19°
    +33°
    Ясно и безоблачно
    ВремяПогодаТемператураВлажностьДавлениеВетер, м/сВероятность осадков
    02:00Ясно и безоблачно+25°C54 %739 мм2.7 м/с17 %
    05:00Ясно и безоблачно+24°C58 %740 мм5.3 м/с2 %
    08:00Ясно и безоблачно+24°C40 %742 мм7.9 м/с2 %
    11:00Ясно и безоблачно+29°C34 %742 мм9.5 м/с2 %
    14:00Ясно и безоблачно+31°C27 %743 мм10.7 м/с2 %
    17:00Ясно и безоблачно+32°C24 %743 мм10.6 м/с2 %
    20:00Ясно и безоблачно+30°C23 %744 мм8.8 м/с2 %
    23:00Ясно и безоблачно+25°C26 %745 мм3.8 м/с2 %
  • 27июля
    Суббота
    +21°
    +35°
    Ясно и безоблачно
    ВремяПогодаТемператураВлажностьДавлениеВетер, м/сВероятность осадков
    02:00Ясно и безоблачно+22°C35 %745 мм2.3 м/с2 %
    05:00Ясно и безоблачно+20°C38 %746 мм2.0 м/с2 %
    08:00Ясно и безоблачно+24°C30 %747 мм0.4 м/с2 %
    11:00Ясно и безоблачно+30°C20 %747 мм2.0 м/с2 %
    14:00Ясно и безоблачно+34°C16 %746 мм5.9 м/с2 %
    17:00Небольшая облачность+35°C15 %746 мм6.2 м/с2 %
    20:00Ясно и безоблачно+33°C16 %746 мм9.4 м/с2 %
    23:00Облачно с прояснениями+29°C23 %747 мм6.5 м/с4 %
  • 28июля
    Воскресенье
    +20°
    +32°
    Ясно и безоблачно
    ВремяПогодаТемператураВлажностьДавлениеВетер, м/сВероятность осадков
    02:00Ясно и безоблачно+25°C25 %747 мм5.2 м/с2 %
    05:00Облачно с прояснениями+23°C28 %748 мм2.8 м/с2 %
    08:00Ясно и безоблачно+23°C25 %749 мм4.3 м/с2 %
    11:00Ясно и безоблачно+29°C19 %749 мм5.7 м/с2 %
    14:00Ясно и безоблачно+32°C17 %749 мм8.4 м/с2 %
    17:00Ясно и безоблачно+31°C16 %749 мм8.1 м/с2 %
    20:00Ясно и безоблачно+30°C19 %749 мм6.9 м/с2 %
    23:00Практически безоблачно+26°C27 %749 мм4.4 м/с2 %
  • 29июля
    Понедельник
    +19°
    +32°
    Практически безоблачно
    ВремяПогодаТемператураВлажностьДавлениеВетер, м/сВероятность осадков
    02:00Ясно и безоблачно+22°C31 %749 мм2.3 м/с2 %
    05:00Ясно и безоблачно+21°C34 %749 мм2.6 м/с2 %
    08:00Ясно и безоблачно+24°C28 %750 мм1.8 м/с2 %
    11:00Практически безоблачно+28°C20 %750 мм4.6 м/с2 %
    14:00Практически безоблачно+31°C17 %749 мм6.2 м/с2 %
    17:00Ясно и безоблачно+31°C16 %748 мм4.9 м/с2 %
    20:00Облачно с прояснениями+30°C17 %748 мм7.7 м/с2 %
    23:00Ясно и безоблачно+25°C22 %749 мм3.2 м/с2 %
Мы используем cookies
Соглашаюсь